Estación Meteorológica Peña el Pijo (Robertgarden) [ 09/24/17 17:44:50 CEST ]

Fecha Hora Presion(HPa) Temp (°C) Humedad % Rocio (°C) Viento ( m/s) Direccion Lluvia 1Hora(mm) Lluvia 24H(mm) LLuvia Total(mm)
2017-Aug-13 01:01:36 1014.700 16.3 59 8.3         1437.96
2017-Aug-13 02:01:40 1014.200 14.4 64 7.6         1437.96
2017-Aug-13 03:01:10 1013.800 13.5 67 7.5         1437.96
2017-Aug-13 04:01:09 1013.300 13.0 70 7.7         1437.96
2017-Aug-13 05:01:13 1013.000 12.1 72 7.2         1437.96
2017-Aug-13 06:01:35 1012.700 11.1 74 6.6         1437.96
2017-Aug-13 07:01:57 1012.600 10.4 75 6.1         1437.96
2017-Aug-13 08:02:00 1012.700 10.0 77 6.1         1437.96
2017-Aug-13 09:01:38 1013.200 16.4 68 10.7         1437.96
2017-Aug-13 10:01:57 1012.900 23.0 47 11.0         1437.96
2017-Aug-13 11:01:44 1012.800 27.8 35 10.8         1437.96
2017-Aug-13 12:01:38 1012.800 31.1 28 10.3         1437.96
2017-Aug-13 13:01:47 1012.800 31.8 25 9.1         1437.96
2017-Aug-13 14:01:27 1012.500 30.7 25 8.2 1.9 SSE     1437.96
2017-Aug-13 15:01:21 1012.000 31.2 26 9.2 0.3 SSW     1437.96
2017-Aug-13 16:01:54 1011.400 31.6 29 11.3         1437.96
2017-Aug-13 17:01:59 1011.300 29.9 34 12.3         1437.96
2017-Aug-13 18:01:44 1011.100 30.3 35 13.0         1437.96
2017-Aug-13 19:01:47 1010.700 28.6 38 12.9         1437.96
2017-Aug-13 20:01:49 1010.900 26.5 41 12.2         1437.96
2017-Aug-13 21:02:11 1011.300 24.0 46 11.6         1437.96
2017-Aug-13 22:01:48 1011.500 21.8 50 10.9         1437.96
2017-Aug-13 23:01:50 1012.000 19.9 54 10.3         1437.96

Temperatura Máxima:31°    Temperatura Mínima:10°
Presión Máxima:1014.700 Hpa    Presión Mínima:1010.700 Hpa


Volver